EJA347 KHDL-KGYH
Flight info
| Callsign | EJA347 |
|---|---|
| Flight time | 0h 49m |
| Altitude | 23000 |
| Route | BEORN SARGE VRSTY BESTT WORXS2 |
| Aircraft | C25C/M-VGD/C |
Departure
| Time | 2026-04-26 23:34 |
|---|---|
| Airport | Headland Municipal Airport (KHDL) |
Arrival
| Time | 2026-04-27 00:24 |
|---|---|
| Airport | Donaldson Field Airport (KGYH) |
| Time | Latitude | Longitude | Altitude | Speed | Heading |
|---|---|---|---|---|---|
| 2026-04-26 22:59 | 31.36262 | -85.30993 | 362 ft | 0 kts | 179° |
| 2026-04-26 23:17 | 31.36272 | -85.30992 | 365 ft | 2 kts | 203° |
| 2026-04-26 23:18 | 31.36278 | -85.30982 | 364 ft | 0 kts | 262° |
| 2026-04-26 23:24 | 31.36278 | -85.30984 | 362 ft | 2 kts | 262° |
| 2026-04-26 23:24 | 31.36277 | -85.31031 | 362 ft | 8 kts | 272° |
| 2026-04-26 23:24 | 31.36278 | -85.31051 | 362 ft | 0 kts | 274° |
| 2026-04-26 23:29 | 31.36278 | -85.31052 | 362 ft | 1 kts | 274° |
| 2026-04-26 23:30 | 31.36295 | -85.31086 | 365 ft | 7 kts | 340° |
| 2026-04-26 23:30 | 31.36334 | -85.31090 | 363 ft | 3 kts | 358° |
| 2026-04-26 23:30 | 31.36358 | -85.31092 | 365 ft | 7 kts | 344° |
| 2026-04-26 23:30 | 31.36377 | -85.31197 | 364 ft | 17 kts | 271° |
| 2026-04-26 23:31 | 31.36378 | -85.31330 | 362 ft | 15 kts | 271° |
| 2026-04-26 23:31 | 31.36380 | -85.31448 | 361 ft | 14 kts | 271° |
| 2026-04-26 23:31 | 31.36381 | -85.31550 | 360 ft | 11 kts | 270° |
| 2026-04-26 23:31 | 31.36382 | -85.31632 | 360 ft | 9 kts | 270° |
| 2026-04-26 23:32 | 31.36382 | -85.31697 | 359 ft | 7 kts | 271° |
| 2026-04-26 23:32 | 31.36382 | -85.31736 | 359 ft | 8 kts | 271° |
| 2026-04-26 23:32 | 31.36384 | -85.31814 | 361 ft | 12 kts | 271° |
| 2026-04-26 23:32 | 31.36372 | -85.31895 | 358 ft | 2 kts | 15° |
| 2026-04-26 23:33 | 31.36375 | -85.31892 | 358 ft | 0 kts | 45° |
| 2026-04-26 23:33 | 31.36384 | -85.31862 | 361 ft | 8 kts | 84° |
| 2026-04-26 23:34 | 31.36385 | -85.31833 | 358 ft | 0 kts | 90° |
| 2026-04-26 23:34 | 31.36381 | -85.31457 | 361 ft | 111 kts | 91° |
| 2026-04-26 23:34 | 31.36348 | -85.30142 | 716 ft | 201 kts | 91° |
| 2026-04-26 23:34 | 31.36342 | -85.28369 | 1494 ft | 228 kts | 90° |
| 2026-04-26 23:35 | 31.36374 | -85.26466 | 2231 ft | 236 kts | 89° |
| 2026-04-26 23:35 | 31.36406 | -85.24578 | 2950 ft | 233 kts | 89° |
| 2026-04-26 23:35 | 31.36430 | -85.22664 | 3672 ft | 242 kts | 89° |
| 2026-04-26 23:35 | 31.36443 | -85.20664 | 4814 ft | 249 kts | 89° |
| 2026-04-26 23:36 | 31.36454 | -85.18569 | 5345 ft | 268 kts | 89° |
| 2026-04-26 23:36 | 31.36551 | -85.16372 | 5890 ft | 271 kts | 75° |
| 2026-04-26 23:36 | 31.37550 | -85.14557 | 6507 ft | 268 kts | 37° |
| 2026-04-26 23:36 | 31.39170 | -85.13488 | 7052 ft | 268 kts | 22° |
| 2026-04-26 23:37 | 31.40892 | -85.12627 | 7588 ft | 270 kts | 20° |
| 2026-04-26 23:37 | 31.42622 | -85.11749 | 8097 ft | 272 kts | 23° |
| 2026-04-26 23:37 | 31.44325 | -85.10750 | 8585 ft | 275 kts | 25° |
| 2026-04-26 23:37 | 31.46039 | -85.09736 | 9052 ft | 277 kts | 24° |
| 2026-04-26 23:38 | 31.47773 | -85.08733 | 9476 ft | 279 kts | 23° |
| 2026-04-26 23:38 | 31.49503 | -85.07742 | 9872 ft | 280 kts | 23° |
| 2026-04-26 23:38 | 31.51259 | -85.06729 | 10235 ft | 282 kts | 23° |
| 2026-04-26 23:38 | 31.53022 | -85.05714 | 10570 ft | 283 kts | 23° |
| 2026-04-26 23:39 | 31.54795 | -85.04685 | 10895 ft | 284 kts | 23° |
| 2026-04-26 23:39 | 31.56578 | -85.03660 | 11205 ft | 286 kts | 23° |
| 2026-04-26 23:39 | 31.58367 | -85.02623 | 11492 ft | 287 kts | 23° |
| 2026-04-26 23:39 | 31.60163 | -85.01585 | 11766 ft | 288 kts | 23° |
| 2026-04-26 23:40 | 31.61970 | -85.00541 | 12050 ft | 289 kts | 23° |
| 2026-04-26 23:40 | 31.63779 | -84.99492 | 12295 ft | 291 kts | 23° |
| 2026-04-26 23:40 | 31.65598 | -84.98442 | 12563 ft | 293 kts | 23° |
| 2026-04-26 23:40 | 31.67429 | -84.97377 | 13181 ft | 293 kts | 23° |
| 2026-04-26 23:41 | 31.69270 | -84.96313 | 13718 ft | 296 kts | 23° |
| 2026-04-26 23:41 | 31.71105 | -84.95250 | 14160 ft | 299 kts | 23° |
| 2026-04-26 23:41 | 31.72974 | -84.94164 | 14606 ft | 301 kts | 23° |
| 2026-04-26 23:41 | 31.74860 | -84.93073 | 15024 ft | 303 kts | 22° |
| 2026-04-26 23:42 | 31.76755 | -84.91968 | 15439 ft | 305 kts | 22° |
| 2026-04-26 23:42 | 31.80579 | -84.89747 | 16184 ft | 308 kts | 22° |
| 2026-04-26 23:42 | 31.82511 | -84.88628 | 16535 ft | 310 kts | 22° |
| 2026-04-26 23:43 | 31.84458 | -84.87494 | 16867 ft | 312 kts | 22° |
| 2026-04-26 23:43 | 31.86406 | -84.86360 | 17181 ft | 313 kts | 22° |
| 2026-04-26 23:43 | 31.88371 | -84.85218 | 17591 ft | 315 kts | 22° |
| 2026-04-26 23:43 | 31.90342 | -84.84067 | 18072 ft | 317 kts | 22° |
| 2026-04-26 23:44 | 31.92292 | -84.82895 | 18454 ft | 321 kts | 26° |
| 2026-04-26 23:44 | 31.94220 | -84.81531 | 19005 ft | 325 kts | 25° |
| 2026-04-26 23:44 | 31.96165 | -84.80249 | 20569 ft | 320 kts | 25° |
| 2026-04-26 23:44 | 31.98138 | -84.78918 | 21864 ft | 328 kts | 26° |
| 2026-04-26 23:45 | 32.00129 | -84.77555 | 22912 ft | 338 kts | 26° |
| 2026-04-26 23:45 | 32.02210 | -84.76127 | 22952 ft | 358 kts | 26° |
| 2026-04-26 23:45 | 32.04428 | -84.74615 | 22949 ft | 368 kts | 26° |
| 2026-04-26 23:45 | 32.06645 | -84.73101 | 22948 ft | 378 kts | 26° |
| 2026-04-26 23:46 | 32.08944 | -84.71531 | 22944 ft | 386 kts | 26° |
| 2026-04-26 23:46 | 32.11290 | -84.69921 | 22944 ft | 393 kts | 26° |
| 2026-04-26 23:46 | 32.13678 | -84.68291 | 22939 ft | 400 kts | 26° |
| 2026-04-26 23:46 | 32.16103 | -84.66629 | 22940 ft | 405 kts | 26° |
| 2026-04-26 23:47 | 32.18558 | -84.64946 | 22938 ft | 410 kts | 27° |
| 2026-04-26 23:47 | 32.21041 | -84.63244 | 22937 ft | 415 kts | 26° |
| 2026-04-26 23:47 | 32.23542 | -84.61526 | 22935 ft | 416 kts | 27° |
| 2026-04-26 23:47 | 32.26046 | -84.59809 | 22937 ft | 415 kts | 27° |
| 2026-04-26 23:48 | 32.28542 | -84.58091 | 22939 ft | 414 kts | 26° |
| 2026-04-26 23:48 | 32.31000 | -84.56304 | 22941 ft | 414 kts | 30° |
| 2026-04-26 23:48 | 32.33413 | -84.54452 | 22938 ft | 413 kts | 28° |
| 2026-04-26 23:48 | 32.35857 | -84.52676 | 22944 ft | 412 kts | 28° |
| 2026-04-26 23:49 | 32.38280 | -84.50871 | 22935 ft | 412 kts | 29° |
| 2026-04-26 23:49 | 32.40689 | -84.49033 | 22936 ft | 411 kts | 29° |
| 2026-04-26 23:49 | 32.43094 | -84.47201 | 22937 ft | 411 kts | 29° |
| 2026-04-26 23:49 | 32.45509 | -84.45388 | 22939 ft | 410 kts | 29° |
| 2026-04-26 23:50 | 32.47918 | -84.43575 | 22935 ft | 410 kts | 29° |
| 2026-04-26 23:50 | 32.50292 | -84.41779 | 22939 ft | 410 kts | 29° |
| 2026-04-26 23:50 | 32.52693 | -84.39959 | 22940 ft | 409 kts | 29° |
| 2026-04-26 23:50 | 32.55098 | -84.38138 | 22941 ft | 409 kts | 29° |
| 2026-04-26 23:51 | 32.57503 | -84.36321 | 22938 ft | 409 kts | 29° |
| 2026-04-26 23:51 | 32.59899 | -84.34502 | 22943 ft | 409 kts | 29° |
| 2026-04-26 23:51 | 32.62295 | -84.32687 | 22948 ft | 409 kts | 29° |
| 2026-04-26 23:51 | 32.64696 | -84.30863 | 22950 ft | 408 kts | 29° |
| 2026-04-26 23:52 | 32.67090 | -84.29048 | 22944 ft | 408 kts | 29° |
| 2026-04-26 23:52 | 32.69480 | -84.27230 | 22944 ft | 408 kts | 29° |
| 2026-04-26 23:52 | 32.71870 | -84.25412 | 22946 ft | 408 kts | 29° |
| 2026-04-26 23:52 | 32.74234 | -84.23616 | 22946 ft | 408 kts | 28° |
| 2026-04-26 23:53 | 32.76618 | -84.21798 | 22944 ft | 408 kts | 29° |
| 2026-04-26 23:53 | 32.79008 | -84.19981 | 22945 ft | 408 kts | 28° |
| 2026-04-26 23:53 | 32.81402 | -84.18153 | 22946 ft | 408 kts | 29° |
| 2026-04-26 23:53 | 32.83790 | -84.16334 | 22945 ft | 408 kts | 29° |
| 2026-04-26 23:54 | 32.86176 | -84.14511 | 22949 ft | 408 kts | 29° |
| 2026-04-26 23:54 | 32.88563 | -84.12691 | 22949 ft | 408 kts | 29° |
| 2026-04-26 23:54 | 32.90951 | -84.10863 | 22948 ft | 408 kts | 28° |
| 2026-04-26 23:54 | 32.93343 | -84.09036 | 22948 ft | 408 kts | 29° |
| 2026-04-26 23:55 | 32.95728 | -84.07210 | 22946 ft | 407 kts | 28° |
| 2026-04-26 23:55 | 32.98115 | -84.05381 | 22947 ft | 408 kts | 29° |
| 2026-04-26 23:55 | 33.00506 | -84.03551 | 22949 ft | 408 kts | 29° |
| 2026-04-26 23:55 | 33.02858 | -84.01744 | 22946 ft | 407 kts | 29° |
| 2026-04-26 23:56 | 33.05248 | -83.99914 | 22949 ft | 407 kts | 29° |
| 2026-04-26 23:56 | 33.07663 | -83.98155 | 22946 ft | 404 kts | 22° |
| 2026-04-26 23:56 | 33.10314 | -83.97192 | 22935 ft | 397 kts | 7° |
| 2026-04-26 23:56 | 33.13046 | -83.96709 | 22942 ft | 396 kts | 4° |
| 2026-04-26 23:57 | 33.15774 | -83.96318 | 22947 ft | 395 kts | 3° |
| 2026-04-26 23:57 | 33.18508 | -83.95928 | 22947 ft | 395 kts | 4° |
| 2026-04-26 23:57 | 33.21233 | -83.95496 | 22943 ft | 396 kts | 4° |
| 2026-04-26 23:57 | 33.23959 | -83.95050 | 22952 ft | 395 kts | 4° |
| 2026-04-26 23:58 | 33.26649 | -83.94632 | 22368 ft | 389 kts | 4° |
| 2026-04-26 23:58 | 33.29339 | -83.94219 | 21571 ft | 388 kts | 4° |
| 2026-04-26 23:58 | 33.32000 | -83.93809 | 21020 ft | 382 kts | 4° |
| 2026-04-26 23:58 | 33.34607 | -83.93395 | 20963 ft | 376 kts | 4° |
| 2026-04-26 23:59 | 33.37214 | -83.92988 | 20962 ft | 378 kts | 4° |
| 2026-04-26 23:59 | 33.39831 | -83.92583 | 20966 ft | 380 kts | 4° |
| 2026-04-26 23:59 | 33.42459 | -83.92170 | 20970 ft | 382 kts | 4° |
| 2026-04-26 23:59 | 33.45099 | -83.91757 | 20972 ft | 383 kts | 4° |
| 2026-04-27 00:00 | 33.47744 | -83.91340 | 20975 ft | 384 kts | 4° |
| 2026-04-27 00:00 | 33.50396 | -83.90928 | 20981 ft | 384 kts | 4° |
| 2026-04-27 00:00 | 33.53047 | -83.90506 | 20980 ft | 385 kts | 4° |
| 2026-04-27 00:00 | 33.55610 | -83.89648 | 20972 ft | 392 kts | 21° |
| 2026-04-27 00:01 | 33.57933 | -83.87906 | 20962 ft | 400 kts | 37° |
| 2026-04-27 00:01 | 33.59772 | -83.85373 | 20957 ft | 408 kts | 53° |
| 2026-04-27 00:01 | 33.60936 | -83.82246 | 20959 ft | 414 kts | 69° |
| 2026-04-27 00:01 | 33.61785 | -83.78942 | 20960 ft | 415 kts | 70° |
| 2026-04-27 00:02 | 33.62559 | -83.75604 | 20976 ft | 415 kts | 71° |
| 2026-04-27 00:02 | 33.63349 | -83.72268 | 20980 ft | 414 kts | 70° |
| 2026-04-27 00:02 | 33.64180 | -83.68961 | 20978 ft | 414 kts | 70° |
| 2026-04-27 00:02 | 33.65007 | -83.65642 | 20983 ft | 414 kts | 70° |
| 2026-04-27 00:03 | 33.65816 | -83.62322 | 20986 ft | 414 kts | 70° |
| 2026-04-27 00:03 | 33.66633 | -83.58990 | 20981 ft | 413 kts | 69° |
| 2026-04-27 00:03 | 33.67885 | -83.55966 | 20964 ft | 407 kts | 55° |
| 2026-04-27 00:03 | 33.69329 | -83.53028 | 20969 ft | 408 kts | 56° |
| 2026-04-27 00:04 | 33.70754 | -83.50084 | 20976 ft | 408 kts | 56° |
| 2026-04-27 00:04 | 33.72189 | -83.47133 | 20983 ft | 407 kts | 56° |
| 2026-04-27 00:04 | 33.73624 | -83.44200 | 20983 ft | 407 kts | 56° |
| 2026-04-27 00:04 | 33.75051 | -83.41260 | 20991 ft | 407 kts | 56° |
| 2026-04-27 00:05 | 33.76481 | -83.38318 | 20993 ft | 407 kts | 56° |
| 2026-04-27 00:05 | 33.77906 | -83.35376 | 21003 ft | 407 kts | 56° |
| 2026-04-27 00:05 | 33.79333 | -83.32440 | 20999 ft | 407 kts | 56° |
| 2026-04-27 00:05 | 33.80757 | -83.29496 | 21000 ft | 407 kts | 56° |
| 2026-04-27 00:06 | 33.82165 | -83.26595 | 21005 ft | 407 kts | 56° |
| 2026-04-27 00:06 | 33.83601 | -83.23665 | 21000 ft | 405 kts | 53° |
| 2026-04-27 00:06 | 33.85178 | -83.20860 | 21002 ft | 405 kts | 52° |
| 2026-04-27 00:06 | 33.86695 | -83.18006 | 20998 ft | 405 kts | 53° |
| 2026-04-27 00:07 | 33.88219 | -83.15146 | 20999 ft | 405 kts | 53° |
| 2026-04-27 00:07 | 33.89762 | -83.12317 | 20989 ft | 404 kts | 52° |
| 2026-04-27 00:07 | 33.91310 | -83.09494 | 20996 ft | 404 kts | 52° |
| 2026-04-27 00:07 | 33.92842 | -83.06661 | 20989 ft | 403 kts | 53° |
| 2026-04-27 00:08 | 33.94342 | -83.03875 | 20915 ft | 388 kts | 53° |
| 2026-04-27 00:08 | 33.95801 | -83.01177 | 20466 ft | 383 kts | 52° |
| 2026-04-27 00:08 | 33.97385 | -82.98604 | 19967 ft | 380 kts | 41° |
| 2026-04-27 00:08 | 33.99439 | -82.96632 | 19476 ft | 377 kts | 33° |
| 2026-04-27 00:09 | 34.01532 | -82.94717 | 18984 ft | 378 kts | 33° |
| 2026-04-27 00:09 | 34.03628 | -82.92860 | 18495 ft | 378 kts | 33° |
| 2026-04-27 00:09 | 34.05735 | -82.90971 | 17967 ft | 376 kts | 33° |
| 2026-04-27 00:09 | 34.07815 | -82.89086 | 17464 ft | 371 kts | 34° |
| 2026-04-27 00:10 | 34.09860 | -82.87228 | 16977 ft | 365 kts | 33° |
| 2026-04-27 00:10 | 34.11885 | -82.85404 | 16512 ft | 361 kts | 34° |
| 2026-04-27 00:10 | 34.13890 | -82.83599 | 16046 ft | 357 kts | 34° |
| 2026-04-27 00:10 | 34.15876 | -82.81820 | 15596 ft | 353 kts | 34° |
| 2026-04-27 00:11 | 34.17837 | -82.80043 | 15157 ft | 351 kts | 34° |
| 2026-04-27 00:11 | 34.19782 | -82.78277 | 14724 ft | 349 kts | 35° |
| 2026-04-27 00:11 | 34.21712 | -82.76519 | 14298 ft | 347 kts | 35° |
| 2026-04-27 00:11 | 34.23611 | -82.74800 | 13884 ft | 345 kts | 36° |
| 2026-04-27 00:12 | 34.25524 | -82.73059 | 13433 ft | 342 kts | 36° |
| 2026-04-27 00:12 | 34.27417 | -82.71341 | 12976 ft | 338 kts | 36° |
| 2026-04-27 00:12 | 34.29286 | -82.69638 | 12538 ft | 335 kts | 36° |
| 2026-04-27 00:12 | 34.31139 | -82.67952 | 12107 ft | 332 kts | 37° |
| 2026-04-27 00:13 | 34.32974 | -82.66282 | 11653 ft | 327 kts | 37° |
| 2026-04-27 00:13 | 34.34738 | -82.64672 | 11055 ft | 301 kts | 37° |
| 2026-04-27 00:13 | 34.36298 | -82.63250 | 10955 ft | 265 kts | 37° |
| 2026-04-27 00:13 | 34.37742 | -82.61918 | 10551 ft | 257 kts | 38° |
| 2026-04-27 00:14 | 34.39156 | -82.60616 | 10136 ft | 252 kts | 38° |
| 2026-04-27 00:14 | 34.40527 | -82.59350 | 9712 ft | 250 kts | 38° |
| 2026-04-27 00:14 | 34.41907 | -82.58081 | 9262 ft | 248 kts | 38° |
| 2026-04-27 00:14 | 34.43243 | -82.56832 | 9040 ft | 238 kts | 38° |
| 2026-04-27 00:15 | 34.44552 | -82.55607 | 8604 ft | 238 kts | 38° |
| 2026-04-27 00:15 | 34.45845 | -82.54395 | 8297 ft | 233 kts | 38° |
| 2026-04-27 00:15 | 34.46697 | -82.53588 | 8013 ft | 234 kts | 38° |
| 2026-04-27 00:15 | 34.47982 | -82.52371 | 7593 ft | 234 kts | 38° |
| 2026-04-27 00:16 | 34.49359 | -82.51360 | 7175 ft | 232 kts | 20° |
| 2026-04-27 00:16 | 34.51403 | -82.50673 | 6632 ft | 227 kts | 15° |
| 2026-04-27 00:16 | 34.52413 | -82.50364 | 6350 ft | 217 kts | 14° |
| 2026-04-27 00:16 | 34.53826 | -82.49935 | 5929 ft | 198 kts | 14° |
| 2026-04-27 00:17 | 34.55128 | -82.49553 | 5521 ft | 189 kts | 14° |
| 2026-04-27 00:17 | 34.56386 | -82.49192 | 5112 ft | 184 kts | 14° |
| 2026-04-27 00:17 | 34.57623 | -82.48852 | 4692 ft | 181 kts | 14° |
| 2026-04-27 00:17 | 34.58832 | -82.48540 | 4278 ft | 180 kts | 14° |
| 2026-04-27 00:18 | 34.60001 | -82.48265 | 3874 ft | 152 kts | 14° |
| 2026-04-27 00:18 | 34.60963 | -82.48083 | 3425 ft | 131 kts | 14° |
| 2026-04-27 00:18 | 34.61822 | -82.47957 | 3212 ft | 116 kts | 15° |
| 2026-04-27 00:18 | 34.62588 | -82.47864 | 3099 ft | 108 kts | 15° |
| 2026-04-27 00:19 | 34.63344 | -82.47782 | 3046 ft | 110 kts | 13° |
| 2026-04-27 00:19 | 34.64100 | -82.47692 | 3107 ft | 111 kts | 13° |
| 2026-04-27 00:19 | 34.64905 | -82.47496 | 3014 ft | 119 kts | 24° |
| 2026-04-27 00:19 | 34.65681 | -82.47188 | 2917 ft | 118 kts | 27° |
| 2026-04-27 00:20 | 34.66430 | -82.46807 | 2821 ft | 115 kts | 33° |
| 2026-04-27 00:20 | 34.67116 | -82.46340 | 2726 ft | 113 kts | 38° |
| 2026-04-27 00:20 | 34.67775 | -82.45819 | 2611 ft | 112 kts | 43° |
| 2026-04-27 00:20 | 34.68388 | -82.45271 | 2542 ft | 106 kts | 45° |
| 2026-04-27 00:21 | 34.68956 | -82.44701 | 2410 ft | 108 kts | 48° |
| 2026-04-27 00:21 | 34.69528 | -82.44094 | 2268 ft | 109 kts | 48° |
| 2026-04-27 00:21 | 34.70111 | -82.43504 | 2129 ft | 107 kts | 45° |
| 2026-04-27 00:21 | 34.70688 | -82.42932 | 1991 ft | 108 kts | 47° |
| 2026-04-27 00:22 | 34.71251 | -82.42327 | 1860 ft | 106 kts | 46° |
| 2026-04-27 00:22 | 34.71788 | -82.41731 | 1715 ft | 103 kts | 46° |
| 2026-04-27 00:22 | 34.72342 | -82.41194 | 1569 ft | 107 kts | 45° |
| 2026-04-27 00:22 | 34.72928 | -82.40618 | 1520 ft | 109 kts | 46° |
| 2026-04-27 00:23 | 34.73508 | -82.40030 | 1466 ft | 110 kts | 47° |
| 2026-04-27 00:23 | 34.74089 | -82.39431 | 1299 ft | 108 kts | 46° |
| 2026-04-27 00:23 | 34.74653 | -82.38842 | 1124 ft | 107 kts | 43° |
| 2026-04-27 00:23 | 34.75214 | -82.38265 | 962 ft | 97 kts | 39° |
| 2026-04-27 00:24 | 34.75618 | -82.37859 | 946 ft | 39 kts | 39° |
| 2026-04-27 00:24 | 34.75811 | -82.37723 | 943 ft | 23 kts | 10° |
| 2026-04-27 00:24 | 34.75900 | -82.37702 | 943 ft | 0 kts | 10° |
| 2026-04-27 00:25 | 34.75903 | -82.37702 | 943 ft | 2 kts | 10° |
| 2026-04-27 00:25 | 34.75938 | -82.37694 | 943 ft | 8 kts | 9° |
| 2026-04-27 00:26 | 34.76000 | -82.37684 | 943 ft | 8 kts | 354° |
| 2026-04-27 00:26 | 34.76036 | -82.37705 | 945 ft | 3 kts | 350° |
| 2026-04-27 00:26 | 34.76061 | -82.37691 | 944 ft | 7 kts | 40° |
| 2026-04-27 00:26 | 34.76105 | -82.37647 | 941 ft | 9 kts | 39° |
| 2026-04-27 00:27 | 34.76154 | -82.37598 | 939 ft | 9 kts | 40° |
| 2026-04-27 00:27 | 34.76200 | -82.37551 | 938 ft | 8 kts | 40° |
| 2026-04-27 00:27 | 34.76240 | -82.37552 | 938 ft | 5 kts | 311° |
| 2026-04-27 00:27 | 34.76257 | -82.37579 | 939 ft | 3 kts | 293° |
| 2026-04-27 00:28 | 34.76249 | -82.37598 | 939 ft | 0 kts | 218° |